sensor_id;sensor_type;location;lat;lon;timestamp;pressure;altitude;pressure_sealevel;temperature;humidity
10115;BME280;5097;43.260;27.812;2023-03-15T00:01:31;99514.50;;;6.11;77.21
10115;BME280;5097;43.260;27.812;2023-03-15T00:04:15;99505.66;;;6.13;77.19
10115;BME280;5097;43.260;27.812;2023-03-15T00:07:00;99498.91;;;6.08;77.44
10115;BME280;5097;43.260;27.812;2023-03-15T00:09:44;99483.19;;;6.27;76.29
10115;BME280;5097;43.260;27.812;2023-03-15T00:12:28;99492.13;;;6.23;76.12
10115;BME280;5097;43.260;27.812;2023-03-15T00:15:12;99493.13;;;6.20;76.18
10115;BME280;5097;43.260;27.812;2023-03-15T00:17:57;99493.41;;;6.14;76.68
10115;BME280;5097;43.260;27.812;2023-03-15T00:20:41;99475.47;;;6.24;76.57
10115;BME280;5097;43.260;27.812;2023-03-15T00:23:26;99473.13;;;6.17;76.69
10115;BME280;5097;43.260;27.812;2023-03-15T00:26:10;99474.84;;;6.18;76.74
10115;BME280;5097;43.260;27.812;2023-03-15T00:28:54;99476.31;;;6.24;76.18
10115;BME280;5097;43.260;27.812;2023-03-15T00:31:38;99467.59;;;6.24;76.32
10115;BME280;5097;43.260;27.812;2023-03-15T00:34:21;99460.09;;;6.16;76.99
10115;BME280;5097;43.260;27.812;2023-03-15T00:37:08;99454.16;;;6.31;75.99
10115;BME280;5097;43.260;27.812;2023-03-15T00:39:54;99455.72;;;6.16;76.57
10115;BME280;5097;43.260;27.812;2023-03-15T00:42:38;99453.28;;;6.12;76.81
10115;BME280;5097;43.260;27.812;2023-03-15T00:45:22;99434.81;;;6.15;76.53
10115;BME280;5097;43.260;27.812;2023-03-15T00:48:06;99439.41;;;6.29;76.54
10115;BME280;5097;43.260;27.812;2023-03-15T00:50:49;99431.38;;;6.32;75.71
10115;BME280;5097;43.260;27.812;2023-03-15T00:53:35;99429.63;;;6.32;77.20
10115;BME280;5097;43.260;27.812;2023-03-15T00:56:22;99339.72;;;5.91;75.87
10115;BME280;5097;43.260;27.812;2023-03-15T00:59:06;99418.69;;;6.42;75.88
10115;BME280;5097;43.260;27.812;2023-03-15T01:01:50;99409.75;;;6.46;75.51
10115;BME280;5097;43.260;27.812;2023-03-15T01:04:36;99386.72;;;6.33;76.50
10115;BME280;5097;43.260;27.812;2023-03-15T01:07:20;99383.53;;;6.46;75.23
10115;BME280;5097;43.260;27.812;2023-03-15T01:10:06;99351.38;;;6.23;75.42
10115;BME280;5097;43.260;27.812;2023-03-15T01:12:51;99394.69;;;6.49;75.52
10115;BME280;5097;43.260;27.812;2023-03-15T01:15:35;99377.56;;;6.42;75.56
10115;BME280;5097;43.260;27.812;2023-03-15T01:18:19;99357.53;;;6.22;76.29
10115;BME280;5097;43.260;27.812;2023-03-15T01:21:05;99376.84;;;6.38;75.96
10115;BME280;5097;43.260;27.812;2023-03-15T01:23:49;99387.13;;;6.24;76.21
10115;BME280;5097;43.260;27.812;2023-03-15T01:26:36;99380.34;;;6.39;76.39
10115;BME280;5097;43.260;27.812;2023-03-15T01:29:21;99379.06;;;6.29;76.96
10115;BME280;5097;43.260;27.812;2023-03-15T01:32:05;99370.97;;;6.33;76.82
10115;BME280;5097;43.260;27.812;2023-03-15T01:34:50;99373.94;;;6.45;76.50
10115;BME280;5097;43.260;27.812;2023-03-15T01:37:33;99374.69;;;6.47;76.25
10115;BME280;5097;43.260;27.812;2023-03-15T01:40:18;99333.09;;;6.22;76.10
10115;BME280;5097;43.260;27.812;2023-03-15T01:43:16;99356.44;;;6.63;75.43
10115;BME280;5097;43.260;27.812;2023-03-15T01:46:25;99359.50;;;6.53;75.80
10115;BME280;5097;43.260;27.812;2023-03-15T01:49:18;99368.47;;;6.49;76.19
10115;BME280;5097;43.260;27.812;2023-03-15T01:52:08;99369.16;;;6.53;75.44
10115;BME280;5097;43.260;27.812;2023-03-15T01:55:04;99373.25;;;6.59;75.86
10115;BME280;5097;43.260;27.812;2023-03-15T01:57:54;99367.34;;;6.55;75.61
10115;BME280;5097;43.260;27.812;2023-03-15T02:00:42;99365.91;;;6.48;75.83
10115;BME280;5097;43.260;27.812;2023-03-15T02:03:34;99347.34;;;6.33;76.60
10115;BME280;5097;43.260;27.812;2023-03-15T02:06:20;99355.72;;;6.42;76.42
10115;BME280;5097;43.260;27.812;2023-03-15T02:09:09;99356.84;;;6.55;76.67
10115;BME280;5097;43.260;27.812;2023-03-15T02:11:57;99338.66;;;6.33;76.03
10115;BME280;5097;43.260;27.812;2023-03-15T02:14:41;99356.56;;;6.42;76.17
10115;BME280;5097;43.260;27.812;2023-03-15T02:17:35;99361.91;;;6.41;76.44
10115;BME280;5097;43.260;27.812;2023-03-15T02:20:29;99355.69;;;6.61;75.76
10115;BME280;5097;43.260;27.812;2023-03-15T02:23:17;99355.22;;;6.70;75.32
10115;BME280;5097;43.260;27.812;2023-03-15T02:26:09;99349.91;;;6.71;75.40
10115;BME280;5097;43.260;27.812;2023-03-15T02:28:57;99354.53;;;6.66;75.34
10115;BME280;5097;43.260;27.812;2023-03-15T02:31:42;99349.56;;;6.60;75.44
10115;BME280;5097;43.260;27.812;2023-03-15T02:34:26;99355.31;;;6.68;75.32
10115;BME280;5097;43.260;27.812;2023-03-15T02:37:10;99345.72;;;6.50;76.24
10115;BME280;5097;43.260;27.812;2023-03-15T02:39:53;99363.47;;;6.62;75.89
10115;BME280;5097;43.260;27.812;2023-03-15T02:42:38;99329.78;;;6.35;76.37
10115;BME280;5097;43.260;27.812;2023-03-15T02:45:26;99316.78;;;6.15;76.59
10115;BME280;5097;43.260;27.812;2023-03-15T02:48:10;99340.91;;;6.41;76.76
10115;BME280;5097;43.260;27.812;2023-03-15T02:50:55;99342.91;;;6.35;76.67
10115;BME280;5097;43.260;27.812;2023-03-15T02:53:38;99314.22;;;6.13;76.59
10115;BME280;5097;43.260;27.812;2023-03-15T02:56:22;99350.94;;;6.32;77.27
10115;BME280;5097;43.260;27.812;2023-03-15T02:59:06;99338.69;;;6.14;77.74
10115;BME280;5097;43.260;27.812;2023-03-15T03:01:53;99355.34;;;6.13;78.35
10115;BME280;5097;43.260;27.812;2023-03-15T03:04:37;99347.31;;;6.16;78.11
10115;BME280;5097;43.260;27.812;2023-03-15T03:07:21;99352.34;;;6.20;78.00
10115;BME280;5097;43.260;27.812;2023-03-15T03:10:14;99360.00;;;6.25;78.88
10115;BME280;5097;43.260;27.812;2023-03-15T03:13:09;99333.09;;;6.22;78.17
10115;BME280;5097;43.260;27.812;2023-03-15T03:15:54;99345.81;;;6.29;77.59
10115;BME280;5097;43.260;27.812;2023-03-15T03:18:45;99350.94;;;6.32;77.93
10115;BME280;5097;43.260;27.812;2023-03-15T03:21:29;99343.63;;;6.20;78.09
10115;BME280;5097;43.260;27.812;2023-03-15T03:24:13;99317.34;;;6.02;79.05
10115;BME280;5097;43.260;27.812;2023-03-15T03:26:57;99354.00;;;6.23;79.25
10115;BME280;5097;43.260;27.812;2023-03-15T03:29:44;99347.66;;;6.27;79.46
10115;BME280;5097;43.260;27.812;2023-03-15T03:32:30;99357.47;;;6.04;80.38
10115;BME280;5097;43.260;27.812;2023-03-15T03:35:15;99355.34;;;6.13;79.70
10115;BME280;5097;43.260;27.812;2023-03-15T03:37:59;99351.38;;;6.23;79.50
10115;BME280;5097;43.260;27.812;2023-03-15T03:40:49;99346.25;;;6.20;80.10
10115;BME280;5097;43.260;27.812;2023-03-15T03:43:33;99331.78;;;6.30;78.94
10115;BME280;5097;43.260;27.812;2023-03-15T03:46:17;99348.31;;;6.32;78.96
10115;BME280;5097;43.260;27.812;2023-03-15T03:49:06;99350.50;;;6.42;78.77
10115;BME280;5097;43.260;27.812;2023-03-15T03:51:51;99323.91;;;6.30;78.72
10115;BME280;5097;43.260;27.812;2023-03-15T03:54:35;99340.59;;;6.47;78.65
10115;BME280;5097;43.260;27.812;2023-03-15T03:57:19;99353.50;;;6.51;78.61
10115;BME280;5097;43.260;27.812;2023-03-15T04:00:04;99357.88;;;6.51;78.52
10115;BME280;5097;43.260;27.812;2023-03-15T04:02:56;99349.72;;;6.57;78.25
10115;BME280;5097;43.260;27.812;2023-03-15T04:05:40;99346.78;;;6.46;78.17
10115;BME280;5097;43.260;27.812;2023-03-15T04:08:31;99354.41;;;6.50;78.49
10115;BME280;5097;43.260;27.812;2023-03-15T04:11:16;99346.03;;;6.61;77.24
10115;BME280;5097;43.260;27.812;2023-03-15T04:14:07;99349.28;;;6.66;77.47
10115;BME280;5097;43.260;27.812;2023-03-15T04:16:52;99341.31;;;6.68;77.30
10115;BME280;5097;43.260;27.812;2023-03-15T04:19:37;99334.59;;;6.62;77.64
10115;BME280;5097;43.260;27.812;2023-03-15T04:22:23;99321.38;;;6.46;78.11
10115;BME280;5097;43.260;27.812;2023-03-15T04:25:28;99329.44;;;6.61;77.37
10115;BME280;5097;43.260;27.812;2023-03-15T04:28:35;99327.09;;;6.72;76.43
10115;BME280;5097;43.260;27.812;2023-03-15T04:31:40;99336.44;;;6.60;76.99
10115;BME280;5097;43.260;27.812;2023-03-15T04:34:44;99351.06;;;6.66;76.44
10115;BME280;5097;43.260;27.812;2023-03-15T04:37:56;99341.09;;;6.73;76.86
10115;BME280;5097;43.260;27.812;2023-03-15T04:41:00;99331.81;;;6.65;77.00
10115;BME280;5097;43.260;27.812;2023-03-15T04:44:11;99332.97;;;6.77;76.48
10115;BME280;5097;43.260;27.812;2023-03-15T04:47:18;99291.66;;;6.28;77.17
10115;BME280;5097;43.260;27.812;2023-03-15T04:50:37;99329.97;;;6.85;76.52
10115;BME280;5097;43.260;27.812;2023-03-15T04:53:41;99328.09;;;7.04;76.18
10115;BME280;5097;43.260;27.812;2023-03-15T04:56:44;99325.34;;;6.90;75.75
10115;BME280;5097;43.260;27.812;2023-03-15T04:59:48;99337.59;;;7.07;76.52
10115;BME280;5097;43.260;27.812;2023-03-15T05:02:44;99340.72;;;7.31;75.82
10115;BME280;5097;43.260;27.812;2023-03-15T05:05:57;99314.38;;;6.99;76.63
10115;BME280;5097;43.260;27.812;2023-03-15T05:09:01;99329.94;;;7.20;75.98
10115;BME280;5097;43.260;27.812;2023-03-15T05:11:47;99324.81;;;7.34;76.02
10115;BME280;5097;43.260;27.812;2023-03-15T05:15:10;99286.41;;;6.98;75.92
10115;BME280;5097;43.260;27.812;2023-03-15T05:18:16;99313.66;;;7.13;75.24
10115;BME280;5097;43.260;27.812;2023-03-15T05:21:23;99307.31;;;7.51;74.59
10115;BME280;5097;43.260;27.812;2023-03-15T05:24:30;99254.00;;;7.49;73.29
10115;BME280;5097;43.260;27.812;2023-03-15T05:27:37;99293.50;;;7.79;73.08
10115;BME280;5097;43.260;27.812;2023-03-15T05:30:29;99293.50;;;7.63;73.40
10115;BME280;5097;43.260;27.812;2023-03-15T05:33:23;99291.97;;;7.75;73.90
10115;BME280;5097;43.260;27.812;2023-03-15T05:36:26;99296.91;;;7.81;73.52
10115;BME280;5097;43.260;27.812;2023-03-15T05:39:29;99293.50;;;7.95;72.85
10115;BME280;5097;43.260;27.812;2023-03-15T05:42:16;99292.66;;;8.11;72.74
10115;BME280;5097;43.260;27.812;2023-03-15T05:45:34;99286.34;;;8.29;71.22
10115;BME280;5097;43.260;27.812;2023-03-15T05:48:36;99257.91;;;8.36;71.02
10115;BME280;5097;43.260;27.812;2023-03-15T05:51:43;99274.09;;;8.60;69.67
10115;BME280;5097;43.260;27.812;2023-03-15T05:54:33;99275.94;;;8.58;70.04
10115;BME280;5097;43.260;27.812;2023-03-15T05:57:56;99279.44;;;8.59;70.13
10115;BME280;5097;43.260;27.812;2023-03-15T06:00:53;99252.97;;;8.76;68.71
10115;BME280;5097;43.260;27.812;2023-03-15T06:03:57;99271.81;;;9.28;67.52
10115;BME280;5097;43.260;27.812;2023-03-15T06:06:44;99266.59;;;8.97;68.63
10115;BME280;5097;43.260;27.812;2023-03-15T06:09:29;99258.44;;;9.31;67.76
10115;BME280;5097;43.260;27.812;2023-03-15T06:12:13;99244.41;;;9.30;66.65
10115;BME280;5097;43.260;27.812;2023-03-15T06:14:58;99247.63;;;8.92;68.13
10115;BME280;5097;43.260;27.812;2023-03-15T06:17:46;99242.06;;;9.11;67.79
10115;BME280;5097;43.260;27.812;2023-03-15T06:20:30;99237.44;;;9.15;67.73
10115;BME280;5097;43.260;27.812;2023-03-15T06:23:21;99225.09;;;8.58;68.70
10115;BME280;5097;43.260;27.812;2023-03-15T06:26:05;99238.41;;;8.54;69.17
10115;BME280;5097;43.260;27.812;2023-03-15T06:28:49;99228.84;;;8.68;69.21
10115;BME280;5097;43.260;27.812;2023-03-15T06:31:34;99223.03;;;8.77;69.03
10115;BME280;5097;43.260;27.812;2023-03-15T06:34:23;99229.13;;;8.63;69.17
10115;BME280;5097;43.260;27.812;2023-03-15T06:37:08;99206.00;;;8.68;69.58
10115;BME280;5097;43.260;27.812;2023-03-15T06:39:59;99222.00;;;8.65;69.71
10115;BME280;5097;43.260;27.812;2023-03-15T06:42:44;99205.25;;;8.52;69.84
10115;BME280;5097;43.260;27.812;2023-03-15T06:45:30;99224.09;;;9.03;69.00
10115;BME280;5097;43.260;27.812;2023-03-15T06:48:19;99220.63;;;8.88;69.43
10115;BME280;5097;43.260;27.812;2023-03-15T06:51:05;99217.41;;;8.83;69.52
10115;BME280;5097;43.260;27.812;2023-03-15T06:53:49;99222.28;;;9.18;68.44
10115;BME280;5097;43.260;27.812;2023-03-15T06:56:33;99216.47;;;8.99;69.04
10115;BME280;5097;43.260;27.812;2023-03-15T06:59:18;99213.00;;;9.13;67.65
10115;BME280;5097;43.260;27.812;2023-03-15T07:02:03;99205.34;;;9.22;67.75
10115;BME280;5097;43.260;27.812;2023-03-15T07:04:47;99199.34;;;9.20;67.97
10115;BME280;5097;43.260;27.812;2023-03-15T07:07:32;99216.66;;;9.25;67.73
10115;BME280;5097;43.260;27.812;2023-03-15T07:10:16;99212.03;;;9.28;67.86
10115;BME280;5097;43.260;27.812;2023-03-15T07:13:00;99226.09;;;9.56;66.47
10115;BME280;5097;43.260;27.812;2023-03-15T07:15:44;99213.38;;;9.63;65.99
10115;BME280;5097;43.260;27.812;2023-03-15T07:18:31;99192.94;;;9.39;65.92
10115;BME280;5097;43.260;27.812;2023-03-15T07:21:16;99225.31;;;9.68;65.98
10115;BME280;5097;43.260;27.812;2023-03-15T07:24:01;99225.91;;;10.01;65.11
10115;BME280;5097;43.260;27.812;2023-03-15T07:26:46;99231.41;;;10.11;64.69
10115;BME280;5097;43.260;27.812;2023-03-15T07:29:31;99227.75;;;9.86;64.64
10115;BME280;5097;43.260;27.812;2023-03-15T07:32:15;99228.78;;;8.84;66.62
10115;BME280;5097;43.260;27.812;2023-03-15T07:34:59;99217.47;;;9.54;65.50
10115;BME280;5097;43.260;27.812;2023-03-15T07:37:44;99165.94;;;9.48;63.82
10115;BME280;5097;43.260;27.812;2023-03-15T07:40:30;99211.56;;;10.05;62.97
10115;BME280;5097;43.260;27.812;2023-03-15T07:43:14;99248.06;;;9.98;62.96
10115;BME280;5097;43.260;27.812;2023-03-15T07:46:03;99220.25;;;9.65;65.35
10115;BME280;5097;43.260;27.812;2023-03-15T07:48:48;99241.28;;;9.94;65.16
10115;BME280;5097;43.260;27.812;2023-03-15T07:51:32;99179.66;;;9.41;65.08
10115;BME280;5097;43.260;27.812;2023-03-15T07:54:16;99240.94;;;10.13;64.69
10115;BME280;5097;43.260;27.812;2023-03-15T07:57:02;99206.38;;;9.76;65.09
10115;BME280;5097;43.260;27.812;2023-03-15T07:59:46;99239.41;;;9.82;66.40
10115;BME280;5097;43.260;27.812;2023-03-15T08:02:30;99241.16;;;10.23;64.95
10115;BME280;5097;43.260;27.812;2023-03-15T08:05:14;99223.88;;;10.32;63.82
10115;BME280;5097;43.260;27.812;2023-03-15T08:08:00;99240.19;;;10.38;64.22
10115;BME280;5097;43.260;27.812;2023-03-15T08:10:44;99231.84;;;10.45;63.98
10115;BME280;5097;43.260;27.812;2023-03-15T08:13:30;99234.91;;;10.38;63.16
10115;BME280;5097;43.260;27.812;2023-03-15T08:16:14;99238.75;;;10.60;62.98
10115;BME280;5097;43.260;27.812;2023-03-15T08:18:58;99245.84;;;10.85;62.14
10115;BME280;5097;43.260;27.812;2023-03-15T08:21:42;99235.13;;;10.48;63.01
10115;BME280;5097;43.260;27.812;2023-03-15T08:24:26;99240.97;;;10.26;64.05
10115;BME280;5097;43.260;27.812;2023-03-15T08:27:11;99231.47;;;9.96;65.38
10115;BME280;5097;43.260;27.812;2023-03-15T08:29:56;99232.38;;;10.37;63.88
10115;BME280;5097;43.260;27.812;2023-03-15T08:32:40;99236.22;;;10.59;63.66
10115;BME280;5097;43.260;27.812;2023-03-15T08:35:25;99236.22;;;10.97;61.92
10115;BME280;5097;43.260;27.812;2023-03-15T08:38:09;99230.09;;;11.10;61.06
10115;BME280;5097;43.260;27.812;2023-03-15T08:40:57;99229.03;;;10.99;60.80
10115;BME280;5097;43.260;27.812;2023-03-15T08:43:41;99195.84;;;10.69;61.11
10115;BME280;5097;43.260;27.812;2023-03-15T08:46:26;99231.94;;;9.61;64.85
10115;BME280;5097;43.260;27.812;2023-03-15T08:49:10;99228.41;;;10.57;62.81
10115;BME280;5097;43.260;27.812;2023-03-15T08:51:54;99202.50;;;10.75;62.20
10115;BME280;5097;43.260;27.812;2023-03-15T08:54:38;99230.72;;;11.00;61.26
10115;BME280;5097;43.260;27.812;2023-03-15T08:57:22;99239.97;;;11.45;61.27
10115;BME280;5097;43.260;27.812;2023-03-15T09:00:10;99225.22;;;10.65;62.37
10115;BME280;5097;43.260;27.812;2023-03-15T09:03:00;99227.56;;;10.69;63.09
10115;BME280;5097;43.260;27.812;2023-03-15T09:05:44;99228.50;;;10.68;61.98
10115;BME280;5097;43.260;27.812;2023-03-15T09:08:28;99207.09;;;10.33;63.79
10115;BME280;5097;43.260;27.812;2023-03-15T09:11:14;99216.56;;;10.88;61.88
10115;BME280;5097;43.260;27.812;2023-03-15T09:13:58;99215.63;;;10.89;62.27
10115;BME280;5097;43.260;27.812;2023-03-15T09:16:42;99209.34;;;11.29;61.36
10115;BME280;5097;43.260;27.812;2023-03-15T09:19:28;99210.81;;;11.33;61.35
10115;BME280;5097;43.260;27.812;2023-03-15T09:22:14;99200.72;;;10.76;62.62
10115;BME280;5097;43.260;27.812;2023-03-15T09:25:16;99211.44;;;11.37;61.66
10115;BME280;5097;43.260;27.812;2023-03-15T09:28:00;99211.47;;;11.61;60.91
10115;BME280;5097;43.260;27.812;2023-03-15T09:30:44;99088.19;;;10.73;60.77
10115;BME280;5097;43.260;27.812;2023-03-15T09:33:28;99204.88;;;12.04;59.96
10115;BME280;5097;43.260;27.812;2023-03-15T09:36:15;99193.44;;;11.79;60.69
10115;BME280;5097;43.260;27.812;2023-03-15T09:38:59;99105.16;;;10.95;60.51
10115;BME280;5097;43.260;27.812;2023-03-15T09:41:46;99202.53;;;11.51;60.70
10115;BME280;5097;43.260;27.812;2023-03-15T09:44:41;99187.31;;;11.42;60.91
10115;BME280;5097;43.260;27.812;2023-03-15T09:47:34;99186.66;;;10.88;62.35
10115;BME280;5097;43.260;27.812;2023-03-15T09:50:23;99185.50;;;10.66;63.85
10115;BME280;5097;43.260;27.812;2023-03-15T09:53:14;99168.00;;;11.15;62.24
10115;BME280;5097;43.260;27.812;2023-03-15T09:55:59;99186.81;;;11.61;61.25
10115;BME280;5097;43.260;27.812;2023-03-15T09:58:43;99184.72;;;11.53;61.69
10115;BME280;5097;43.260;27.812;2023-03-15T10:01:30;99180.63;;;11.49;61.80
10115;BME280;5097;43.260;27.812;2023-03-15T10:04:24;99175.06;;;11.89;60.56
10115;BME280;5097;43.260;27.812;2023-03-15T10:07:13;99178.31;;;12.52;59.37
10115;BME280;5097;43.260;27.812;2023-03-15T10:09:59;99176.91;;;11.76;60.35
10115;BME280;5097;43.260;27.812;2023-03-15T10:12:51;99178.22;;;11.94;60.59
10115;BME280;5097;43.260;27.812;2023-03-15T10:15:45;99168.75;;;12.27;59.84
10115;BME280;5097;43.260;27.812;2023-03-15T10:18:47;99135.22;;;12.03;59.71
10115;BME280;5097;43.260;27.812;2023-03-15T10:21:44;99172.13;;;12.29;60.24
10115;BME280;5097;43.260;27.812;2023-03-15T10:24:36;99162.91;;;11.62;62.08
10115;BME280;5097;43.260;27.812;2023-03-15T10:27:29;99117.41;;;11.33;62.35
10115;BME280;5097;43.260;27.812;2023-03-15T10:30:17;99140.91;;;10.62;64.67
10115;BME280;5097;43.260;27.812;2023-03-15T10:33:05;99134.06;;;11.70;62.76
10115;BME280;5097;43.260;27.812;2023-03-15T10:35:53;99133.38;;;12.51;60.34
10115;BME280;5097;43.260;27.812;2023-03-15T10:38:51;99135.56;;;11.13;62.98
10115;BME280;5097;43.260;27.812;2023-03-15T10:41:39;99127.03;;;10.97;64.46
10115;BME280;5097;43.260;27.812;2023-03-15T10:44:25;99127.22;;;11.68;61.72
10115;BME280;5097;43.260;27.812;2023-03-15T10:47:12;99125.25;;;11.58;62.18
10115;BME280;5097;43.260;27.812;2023-03-15T10:50:06;99106.53;;;11.62;62.29
10115;BME280;5097;43.260;27.812;2023-03-15T10:52:53;99103.59;;;11.89;61.19
10115;BME280;5097;43.260;27.812;2023-03-15T10:55:42;99083.38;;;11.88;60.79
10115;BME280;5097;43.260;27.812;2023-03-15T10:58:28;99104.66;;;12.11;59.86
10115;BME280;5097;43.260;27.812;2023-03-15T11:01:24;99093.47;;;11.47;62.17
10115;BME280;5097;43.260;27.812;2023-03-15T11:04:14;99092.16;;;12.13;60.36
10115;BME280;5097;43.260;27.812;2023-03-15T11:07:00;99106.25;;;11.89;59.55
10115;BME280;5097;43.260;27.812;2023-03-15T11:09:51;99082.31;;;11.55;61.03
10115;BME280;5097;43.260;27.812;2023-03-15T11:12:35;99059.91;;;11.96;60.47
10115;BME280;5097;43.260;27.812;2023-03-15T11:15:19;99093.91;;;12.48;59.70
10115;BME280;5097;43.260;27.812;2023-03-15T11:18:05;99077.13;;;11.78;61.48
10115;BME280;5097;43.260;27.812;2023-03-15T11:20:51;99074.16;;;12.40;60.17
10115;BME280;5097;43.260;27.812;2023-03-15T11:23:37;99078.00;;;12.48;59.89
10115;BME280;5097;43.260;27.812;2023-03-15T11:26:24;99077.50;;;12.99;58.24
10115;BME280;5097;43.260;27.812;2023-03-15T11:29:18;99043.53;;;12.02;59.36
10115;BME280;5097;43.260;27.812;2023-03-15T11:32:11;99080.47;;;11.80;62.41
10115;BME280;5097;43.260;27.812;2023-03-15T11:35:00;99064.47;;;12.05;61.87
10115;BME280;5097;43.260;27.812;2023-03-15T11:37:49;99064.19;;;11.97;62.09
10115;BME280;5097;43.260;27.812;2023-03-15T11:40:41;98957.34;;;11.04;62.51
10115;BME280;5097;43.260;27.812;2023-03-15T11:43:30;99066.44;;;12.83;59.54
10115;BME280;5097;43.260;27.812;2023-03-15T11:46:21;99048.63;;;12.39;60.49
10115;BME280;5097;43.260;27.812;2023-03-15T11:49:13;99047.50;;;11.72;62.53
10115;BME280;5097;43.260;27.812;2023-03-15T11:51:59;99037.38;;;12.93;59.39
10115;BME280;5097;43.260;27.812;2023-03-15T11:54:44;99040.09;;;13.14;59.58
10115;BME280;5097;43.260;27.812;2023-03-15T11:57:43;99046.88;;;13.83;56.80
10115;BME280;5097;43.260;27.812;2023-03-15T12:00:48;99045.00;;;12.29;60.16
10115;BME280;5097;43.260;27.812;2023-03-15T12:03:38;99049.16;;;13.55;57.21
10115;BME280;5097;43.260;27.812;2023-03-15T12:06:37;99054.09;;;13.81;55.54
10115;BME280;5097;43.260;27.812;2023-03-15T12:09:48;99055.19;;;13.13;57.57
10115;BME280;5097;43.260;27.812;2023-03-15T12:12:35;99050.91;;;12.44;59.29
10115;BME280;5097;43.260;27.812;2023-03-15T12:15:45;99050.88;;;12.10;61.07
10115;BME280;5097;43.260;27.812;2023-03-15T12:18:31;99057.53;;;12.84;59.46
10115;BME280;5097;43.260;27.812;2023-03-15T12:21:19;99064.41;;;13.41;57.28
10115;BME280;5097;43.260;27.812;2023-03-15T12:24:06;99060.91;;;12.18;61.28
10115;BME280;5097;43.260;27.812;2023-03-15T12:26:58;99062.31;;;12.11;61.79
10115;BME280;5097;43.260;27.812;2023-03-15T12:29:45;99063.06;;;12.47;60.79
10115;BME280;5097;43.260;27.812;2023-03-15T12:32:29;99054.41;;;12.45;60.35
10115;BME280;5097;43.260;27.812;2023-03-15T12:35:16;99057.41;;;12.85;59.73
10115;BME280;5097;43.260;27.812;2023-03-15T12:38:02;99052.56;;;12.79;59.27
10115;BME280;5097;43.260;27.812;2023-03-15T12:40:49;99059.47;;;12.70;59.49
10115;BME280;5097;43.260;27.812;2023-03-15T12:43:38;99073.03;;;11.73;62.00
10115;BME280;5097;43.260;27.812;2023-03-15T12:46:57;99067.25;;;11.80;62.50
10115;BME280;5097;43.260;27.812;2023-03-15T12:49:41;99065.81;;;12.22;61.70
10115;BME280;5097;43.260;27.812;2023-03-15T12:52:40;99066.44;;;12.37;60.97
10115;BME280;5097;43.260;27.812;2023-03-15T12:55:27;99064.31;;;11.60;63.22
10115;BME280;5097;43.260;27.812;2023-03-15T12:58:16;99066.38;;;11.44;64.45
10115;BME280;5097;43.260;27.812;2023-03-15T13:01:04;99074.53;;;11.65;63.93
10115;BME280;5097;43.260;27.812;2023-03-15T13:03:53;99061.38;;;11.87;62.38
10115;BME280;5097;43.260;27.812;2023-03-15T13:06:48;99069.28;;;11.40;63.79
10115;BME280;5097;43.260;27.812;2023-03-15T13:09:44;99065.97;;;11.61;64.02
10115;BME280;5097;43.260;27.812;2023-03-15T13:12:36;99068.75;;;11.60;61.72
10115;BME280;5097;43.260;27.812;2023-03-15T13:15:25;99053.63;;;11.13;63.53
10115;BME280;5097;43.260;27.812;2023-03-15T13:18:16;99066.75;;;11.74;61.94
10115;BME280;5097;43.260;27.812;2023-03-15T13:21:10;99034.34;;;11.60;62.23
10115;BME280;5097;43.260;27.812;2023-03-15T13:23:57;99049.41;;;11.11;64.00
10115;BME280;5097;43.260;27.812;2023-03-15T13:26:49;99038.63;;;11.73;62.77
10115;BME280;5097;43.260;27.812;2023-03-15T13:29:36;99058.66;;;11.65;63.12
10115;BME280;5097;43.260;27.812;2023-03-15T13:32:21;99047.91;;;11.79;62.11
10115;BME280;5097;43.260;27.812;2023-03-15T13:35:10;99050.44;;;11.92;61.05
10115;BME280;5097;43.260;27.812;2023-03-15T13:38:05;99047.88;;;11.44;61.17
10115;BME280;5097;43.260;27.812;2023-03-15T13:40:48;99046.09;;;12.27;59.19
10115;BME280;5097;43.260;27.812;2023-03-15T13:43:34;99048.81;;;12.02;59.33
10115;BME280;5097;43.260;27.812;2023-03-15T13:46:20;99029.88;;;11.84;60.15
10115;BME280;5097;43.260;27.812;2023-03-15T13:49:05;99046.06;;;12.04;60.09
10115;BME280;5097;43.260;27.812;2023-03-15T13:51:51;99051.16;;;12.41;60.13
10115;BME280;5097;43.260;27.812;2023-03-15T13:54:35;99046.78;;;12.17;61.25
10115;BME280;5097;43.260;27.812;2023-03-15T13:57:21;99049.97;;;12.56;60.11
10115;BME280;5097;43.260;27.812;2023-03-15T14:00:09;99039.47;;;12.44;59.94
10115;BME280;5097;43.260;27.812;2023-03-15T14:02:56;99037.47;;;11.53;63.40
10115;BME280;5097;43.260;27.812;2023-03-15T14:05:43;99038.84;;;12.06;60.95
10115;BME280;5097;43.260;27.812;2023-03-15T14:08:32;99029.38;;;12.26;61.91
10115;BME280;5097;43.260;27.812;2023-03-15T14:11:18;99026.44;;;12.06;61.87
10115;BME280;5097;43.260;27.812;2023-03-15T14:14:21;98992.66;;;11.74;62.46
10115;BME280;5097;43.260;27.812;2023-03-15T14:17:07;99009.25;;;11.65;64.31
10115;BME280;5097;43.260;27.812;2023-03-15T14:20:04;99041.13;;;12.11;63.06
10115;BME280;5097;43.260;27.812;2023-03-15T14:22:50;99039.00;;;12.38;62.09
10115;BME280;5097;43.260;27.812;2023-03-15T14:25:36;99041.66;;;12.50;61.92
10115;BME280;5097;43.260;27.812;2023-03-15T14:28:20;99022.97;;;11.70;63.45
10115;BME280;5097;43.260;27.812;2023-03-15T14:31:06;99032.22;;;12.12;62.13
10115;BME280;5097;43.260;27.812;2023-03-15T14:33:51;99025.78;;;11.80;63.68
10115;BME280;5097;43.260;27.812;2023-03-15T14:36:40;99025.75;;;12.04;63.04
10115;BME280;5097;43.260;27.812;2023-03-15T14:39:27;99022.81;;;11.61;64.93
10115;BME280;5097;43.260;27.812;2023-03-15T14:42:14;99031.50;;;12.32;62.51
10115;BME280;5097;43.260;27.812;2023-03-15T14:44:58;99008.47;;;11.87;63.59
10115;BME280;5097;43.260;27.812;2023-03-15T14:47:45;99031.66;;;11.72;64.45
10115;BME280;5097;43.260;27.812;2023-03-15T14:50:39;99024.59;;;11.49;66.41
10115;BME280;5097;43.260;27.812;2023-03-15T14:53:25;99004.31;;;11.72;65.10
10115;BME280;5097;43.260;27.812;2023-03-15T14:56:14;99019.13;;;11.74;65.37
10115;BME280;5097;43.260;27.812;2023-03-15T14:59:04;99026.19;;;11.98;66.29
10115;BME280;5097;43.260;27.812;2023-03-15T15:01:56;99032.63;;;10.49;71.48